Caldera, Chile
Current Conditions -  °F | °C
As of 8:00 AM on Friday 24 Oct 2014 (Local Time) from SCAT Reporting Station
Haze Haze  
Wind Chill: 55°   Ceiling: 400
Heat Index: 55°   Visibility: 3mi
Dew Point: 52°   Wind: 12mph
Humidity: 88%   Direction: 330°NNW
Pressure: 30.03"   Gusts: NA
Location:  27.08°S, 70.81°W
Report Text: SCAT 241200Z 33010KT 5000 HZ SCT002 OVC004 13/11 Q1017
Loading
Personal Weather Stations






























Interactive Weather Map
Tropical Storm Tracking
New forecast layout! Learn more

10-Day Weather Forecast

Advertisements
Track Severe Weather on mobile